createdAt,value
2017-12-29T00:00:47.554Z,93.40
2017-12-29T00:03:15.066Z,93.50
2017-12-29T00:05:42.560Z,93.60
2017-12-29T00:08:10.050Z,93.70
2017-12-29T00:10:38.317Z,93.60
2017-12-29T00:13:06.577Z,93.70
2017-12-29T00:15:34.083Z,93.70
2017-12-29T00:18:01.561Z,93.80
2017-12-29T00:20:29.049Z,93.80
2017-12-29T00:22:56.548Z,94.20
2017-12-29T00:25:24.813Z,94.20
2017-12-29T00:27:53.086Z,94.50
2017-12-29T00:30:21.341Z,94.10
2017-12-29T00:32:48.858Z,94.10
2017-12-29T00:35:16.357Z,94.20
2017-12-29T00:37:43.835Z,94.30
2017-12-29T00:40:12.126Z,94.70
2017-12-29T00:42:40.381Z,94.90
2017-12-29T00:45:07.883Z,94.90
2017-12-29T00:47:35.390Z,95.10
2017-12-29T00:50:02.874Z,95.20
2017-12-29T00:52:31.142Z,95.30
2017-12-29T00:54:59.400Z,95.30
2017-12-29T00:57:26.881Z,95.30
2017-12-29T00:59:55.162Z,95.20
2017-12-29T01:02:23.409Z,95.30
2017-12-29T01:04:50.909Z,95.20
2017-12-29T01:07:19.165Z,95.30
2017-12-29T01:09:47.417Z,95.20
2017-12-29T01:12:14.921Z,95.20
2017-12-29T01:14:42.508Z,95.00
2017-12-29T01:17:10.025Z,94.70
2017-12-29T01:19:38.269Z,94.50
2017-12-29T01:22:05.749Z,94.50
2017-12-29T01:24:34.017Z,94.30
2017-12-29T01:27:01.501Z,94.20
2017-12-29T01:29:29.780Z,94.20
2017-12-29T01:31:58.045Z,94.00
2017-12-29T01:34:26.298Z,94.00
2017-12-29T01:36:53.789Z,94.00
2017-12-29T01:39:22.059Z,94.10
2017-12-29T01:41:50.331Z,94.00
2017-12-29T01:44:18.581Z,94.10
2017-12-29T01:46:46.840Z,94.00
2017-12-29T01:49:14.345Z,94.20
2017-12-29T01:51:48.142Z,94.00
2017-12-29T01:54:16.422Z,93.70
2017-12-29T01:56:43.916Z,93.80
2017-12-29T01:59:11.418Z,94.00
2017-12-29T02:01:38.901Z,94.00
2017-12-29T02:04:07.156Z,93.90
2017-12-29T02:06:34.661Z,93.90
2017-12-29T02:09:02.145Z,93.90
2017-12-29T02:11:29.631Z,93.70
2017-12-29T02:13:57.141Z,93.80
2017-12-29T02:16:24.633Z,93.80
2017-12-29T02:18:52.138Z,93.80
2017-12-29T02:21:20.393Z,93.70
2017-12-29T02:23:47.880Z,93.70
2017-12-29T02:26:16.145Z,93.40
2017-12-29T02:28:44.397Z,93.40
2017-12-29T02:31:11.898Z,93.40
2017-12-29T02:33:39.382Z,93.30
2017-12-29T02:36:06.883Z,93.30
2017-12-29T02:38:34.382Z,93.30
2017-12-29T02:41:01.861Z,93.40
2017-12-29T02:43:29.361Z,93.30
2017-12-29T02:45:57.615Z,93.40
2017-12-29T02:48:25.113Z,93.40
2017-12-29T02:50:53.373Z,93.30
2017-12-29T02:53:21.648Z,93.50
2017-12-29T02:55:49.129Z,93.40
2017-12-29T02:58:17.373Z,93.30
2017-12-29T03:00:44.878Z,93.30
2017-12-29T03:03:12.365Z,93.20
2017-12-29T03:05:39.858Z,93.30
2017-12-29T03:08:07.333Z,93.40
2017-12-29T03:10:35.600Z,93.50
2017-12-29T03:13:03.849Z,93.60
2017-12-29T03:15:31.329Z,93.60
2017-12-29T03:17:59.606Z,94.10
2017-12-29T03:20:27.869Z,93.70
2017-12-29T03:22:55.373Z,93.70
2017-12-29T03:25:22.850Z,94.00
2017-12-29T03:27:50.356Z,93.60
2017-12-29T03:30:18.616Z,93.70
2017-12-29T03:32:46.913Z,93.70
2017-12-29T03:35:15.185Z,93.70
2017-12-29T03:37:43.445Z,93.70
2017-12-29T03:40:10.949Z,93.70
2017-12-29T03:42:38.432Z,93.70
2017-12-29T03:45:05.938Z,93.70
2017-12-29T03:47:34.188Z,93.80
2017-12-29T03:50:01.673Z,93.80
2017-12-29T03:52:29.962Z,94.20
2017-12-29T03:54:58.209Z,93.90
2017-12-29T03:57:25.706Z,93.90
2017-12-29T03:59:53.957Z,93.90
2017-12-29T04:02:21.562Z,93.90
2017-12-29T04:04:49.058Z,94.00
2017-12-29T04:07:16.541Z,94.00
2017-12-29T04:09:44.814Z,94.20
2017-12-29T04:12:13.070Z,94.30
2017-12-29T04:14:40.569Z,94.30
2017-12-29T04:17:08.825Z,94.40
2017-12-29T04:19:37.095Z,94.60
2017-12-29T04:22:04.581Z,94.30
2017-12-29T04:24:32.847Z,94.50
2017-12-29T04:27:01.093Z,94.60
2017-12-29T04:29:29.343Z,94.60
2017-12-29T04:31:56.841Z,94.60
2017-12-29T04:34:24.333Z,94.80
2017-12-29T04:36:51.832Z,94.50
2017-12-29T04:39:19.313Z,94.80
2017-12-29T04:41:46.808Z,94.70
2017-12-29T04:44:14.297Z,94.90
2017-12-29T04:46:41.834Z,95.00
2017-12-29T04:49:10.114Z,95.00
2017-12-29T04:51:37.606Z,95.00
2017-12-29T04:54:05.108Z,95.10
2017-12-29T04:56:33.357Z,95.00
2017-12-29T04:59:00.851Z,95.00
2017-12-29T05:01:29.096Z,95.00
2017-12-29T05:03:56.596Z,95.00
2017-12-29T05:06:24.090Z,95.10
2017-12-29T05:08:51.605Z,95.10
2017-12-29T05:11:19.085Z,95.10
2017-12-29T05:13:46.565Z,95.10
2017-12-29T05:16:14.061Z,94.80
2017-12-29T05:18:42.357Z,94.50
2017-12-29T05:21:09.854Z,94.50
2017-12-29T05:23:37.341Z,94.40
2017-12-29T05:26:04.862Z,94.50
2017-12-29T05:28:32.349Z,94.40
2017-12-29T05:30:59.845Z,94.40
2017-12-29T05:33:27.341Z,94.60
2017-12-29T05:35:54.827Z,94.60
2017-12-29T05:38:22.325Z,94.60
2017-12-29T05:40:50.602Z,94.60
2017-12-29T05:43:18.866Z,94.60
2017-12-29T05:45:47.109Z,94.70
2017-12-29T05:48:14.618Z,94.70
2017-12-29T05:50:42.125Z,94.80
2017-12-29T05:53:09.613Z,94.70
2017-12-29T05:55:37.884Z,94.90
2017-12-29T05:58:06.153Z,94.90
2017-12-29T06:00:33.661Z,94.90
2017-12-29T06:03:01.141Z,94.90
2017-12-29T06:05:28.645Z,95.00
2017-12-29T06:07:56.893Z,94.90
2017-12-29T06:10:24.378Z,94.90
2017-12-29T06:12:52.668Z,94.70
2017-12-29T06:15:20.155Z,94.80
2017-12-29T06:17:47.654Z,94.80
2017-12-29T06:20:15.146Z,94.80
2017-12-29T06:22:42.653Z,94.80
2017-12-29T06:25:10.157Z,94.70
2017-12-29T06:27:38.431Z,95.10
2017-12-29T06:30:06.681Z,95.20
2017-12-29T06:32:34.165Z,95.30
2017-12-29T06:35:02.429Z,95.40
2017-12-29T06:37:30.681Z,95.80
2017-12-29T06:39:58.176Z,95.40
2017-12-29T06:42:26.429Z,95.60
2017-12-29T06:44:53.935Z,95.60
2017-12-29T06:47:21.429Z,95.60
2017-12-29T06:49:48.937Z,95.60
2017-12-29T06:52:16.417Z,95.80
2017-12-29T06:54:43.909Z,95.80
2017-12-29T06:57:11.412Z,95.90
2017-12-29T06:59:38.894Z,95.90
2017-12-29T07:02:06.394Z,96.00
2017-12-29T07:04:33.884Z,95.90
2017-12-29T07:07:02.189Z,95.90
2017-12-29T07:09:29.673Z,95.90
2017-12-29T07:11:57.199Z,95.70
2017-12-29T07:14:24.685Z,95.80
2017-12-29T07:16:52.213Z,95.80
2017-12-29T07:19:19.717Z,95.90
2017-12-29T07:21:47.197Z,95.90
2017-12-29T07:24:15.464Z,95.50
2017-12-29T07:26:43.723Z,95.50
2017-12-29T07:29:11.223Z,95.50
2017-12-29T07:31:39.477Z,95.60
2017-12-29T07:34:06.986Z,95.60
2017-12-29T07:36:34.474Z,95.60
2017-12-29T07:39:01.965Z,95.70
2017-12-29T07:41:30.234Z,95.80
2017-12-29T07:43:58.493Z,95.60
2017-12-29T07:46:25.995Z,95.60
2017-12-29T07:48:53.477Z,95.60
2017-12-29T07:51:20.974Z,95.60
2017-12-29T07:53:48.557Z,95.40
2017-12-29T07:56:16.854Z,95.50
2017-12-29T07:58:44.358Z,95.40
2017-12-29T08:01:11.861Z,95.20
2017-12-29T08:03:39.371Z,95.20
2017-12-29T08:06:06.859Z,95.10
2017-12-29T08:08:35.124Z,95.00
2017-12-29T08:11:02.694Z,94.90
2017-12-29T08:13:30.966Z,94.80
2017-12-29T08:15:58.461Z,94.80
2017-12-29T08:18:25.962Z,94.80
2017-12-29T08:20:53.449Z,94.80
2017-12-29T08:23:21.705Z,94.70
2017-12-29T08:25:49.201Z,94.70
2017-12-29T08:28:17.445Z,94.70
2017-12-29T08:30:44.933Z,94.60
2017-12-29T08:33:13.189Z,94.50
2017-12-29T08:35:41.461Z,94.50
2017-12-29T08:38:08.941Z,94.40
2017-12-29T08:40:37.228Z,94.40
2017-12-29T08:43:04.710Z,94.40
2017-12-29T08:45:32.197Z,94.30
2017-12-29T08:47:59.695Z,94.30
2017-12-29T08:50:27.206Z,94.40
2017-12-29T08:52:54.700Z,94.30
2017-12-29T08:55:23.763Z,94.30
2017-12-29T08:57:51.265Z,94.30
2017-12-29T09:00:18.773Z,94.40
2017-12-29T09:02:46.289Z,94.40
2017-12-29T09:05:13.768Z,94.40
2017-12-29T09:07:41.558Z,94.30
2017-12-29T09:10:09.053Z,94.30
2017-12-29T09:12:37.311Z,94.40
2017-12-29T09:15:05.577Z,94.30
2017-12-29T09:17:33.058Z,94.30
2017-12-29T09:20:02.151Z,94.30
2017-12-29T09:22:29.637Z,94.30
2017-12-29T09:24:57.149Z,94.20
2017-12-29T09:27:24.651Z,94.00
2017-12-29T09:29:52.150Z,93.90
2017-12-29T09:32:19.649Z,93.90
2017-12-29T09:34:47.909Z,93.70
2017-12-29T09:37:15.424Z,93.70
2017-12-29T09:39:42.905Z,93.60
2017-12-29T09:42:10.411Z,93.30
2017-12-29T09:44:38.673Z,93.00
2017-12-29T09:47:06.193Z,93.00
2017-12-29T09:49:33.680Z,93.10
2017-12-29T09:52:01.166Z,92.90
2017-12-29T09:54:29.469Z,92.70
2017-12-29T09:56:56.963Z,92.70
2017-12-29T09:59:24.463Z,92.20
2017-12-29T10:01:52.713Z,91.20
2017-12-29T10:04:20.346Z,91.20
2017-12-29T10:06:47.837Z,90.80
2017-12-29T10:09:15.340Z,90.80
2017-12-29T10:11:42.830Z,90.50
2017-12-29T10:14:10.321Z,90.00
2017-12-29T10:16:38.597Z,88.60
2017-12-29T10:19:06.081Z,88.60
2017-12-29T10:21:33.653Z,88.00
2017-12-29T10:24:01.198Z,87.80
2017-12-29T10:26:28.712Z,87.50
2017-12-29T10:28:56.202Z,86.80
2017-12-29T10:31:24.453Z,86.50
2017-12-29T10:33:51.958Z,86.50
2017-12-29T10:36:19.442Z,86.20
2017-12-29T10:38:46.983Z,87.50
2017-12-29T10:41:14.474Z,86.50
2017-12-29T10:43:41.989Z,87.00
2017-12-29T10:46:09.477Z,86.50
2017-12-29T10:48:36.960Z,87.10
2017-12-29T10:51:04.474Z,87.40
2017-12-29T10:53:31.961Z,88.50
2017-12-29T10:57:06.226Z,88.10
2017-12-29T10:59:34.477Z,88.20
2017-12-29T11:02:01.969Z,88.20
2017-12-29T11:04:30.219Z,88.20
2017-12-29T11:06:57.726Z,88.20
2017-12-29T11:09:25.224Z,89.40
2017-12-29T11:11:52.741Z,88.50
2017-12-29T11:14:20.252Z,88.30
2017-12-29T11:16:47.740Z,88.00
2017-12-29T11:19:16.002Z,88.60
2017-12-29T11:21:44.249Z,88.70
2017-12-29T11:24:11.762Z,88.60
2017-12-29T11:26:39.242Z,89.10
2017-12-29T11:29:06.745Z,88.00
2017-12-29T11:31:34.230Z,88.50
2017-12-29T11:34:01.741Z,88.10
2017-12-29T11:36:29.225Z,88.40
2017-12-29T11:38:57.482Z,88.90
2017-12-29T11:41:24.995Z,88.90
2017-12-29T11:43:52.479Z,88.50
2017-12-29T11:46:19.978Z,88.00
2017-12-29T11:48:48.262Z,87.80
2017-12-29T11:51:16.533Z,87.80
2017-12-29T11:53:44.793Z,87.80
2017-12-29T11:56:12.348Z,87.70
2017-12-29T11:58:39.837Z,87.70
2017-12-29T12:01:07.341Z,87.80
2017-12-29T12:03:34.841Z,88.00
2017-12-29T12:06:03.102Z,88.00
2017-12-29T12:08:30.614Z,88.00
2017-12-29T12:10:58.098Z,88.10
2017-12-29T12:13:25.602Z,88.30
2017-12-29T12:15:53.910Z,87.60
2017-12-29T12:18:21.417Z,87.50
2017-12-29T12:20:48.902Z,87.50
2017-12-29T12:23:17.172Z,88.00
2017-12-29T12:25:45.459Z,89.00
2017-12-29T12:28:12.967Z,88.40
2017-12-29T12:30:40.468Z,88.00
2017-12-29T12:33:08.713Z,88.00
2017-12-29T12:35:36.215Z,88.00
2017-12-29T12:38:03.698Z,88.60
2017-12-29T12:40:31.210Z,88.70
2017-12-29T12:42:58.697Z,88.60
2017-12-29T12:45:26.173Z,89.00
2017-12-29T14:33:51.136Z,95.70
2017-12-29T14:36:18.652Z,95.80
2017-12-29T14:38:46.131Z,95.50
2017-12-29T14:41:13.674Z,95.60
2017-12-29T14:43:41.166Z,95.60
2017-12-29T14:46:08.673Z,95.50
2017-12-29T14:48:36.157Z,95.80
2017-12-29T14:51:03.650Z,95.90
2017-12-29T14:53:31.167Z,96.30
2017-12-29T14:55:58.655Z,96.60
2017-12-29T14:58:26.149Z,96.90
2017-12-29T15:00:54.409Z,97.50
2017-12-29T15:03:21.905Z,97.50
2017-12-29T15:05:49.389Z,97.60
2017-12-29T15:08:16.900Z,98.10
2017-12-29T15:10:45.145Z,98.60
2017-12-29T15:13:12.656Z,98.60
2017-12-29T15:15:40.160Z,99.00
2017-12-29T15:18:07.657Z,98.80
2017-12-29T15:20:37.349Z,99.40
2017-12-29T15:23:04.841Z,99.70
2017-12-29T15:25:32.406Z,99.50
2017-12-29T15:27:59.919Z,99.50
2017-12-29T15:30:27.435Z,99.70
2017-12-29T15:32:54.921Z,99.90
2017-12-29T15:35:22.409Z,99.90
2017-12-29T15:37:50.725Z,99.90
2017-12-29T15:40:18.286Z,99.90
2017-12-29T15:42:45.816Z,99.90
2017-12-29T15:45:14.128Z,99.90
2017-12-29T15:47:41.681Z,99.90
2017-12-29T15:50:09.189Z,99.90
2017-12-29T15:52:36.684Z,99.90
2017-12-29T15:55:04.177Z,99.90
2017-12-29T15:57:31.820Z,99.90
2017-12-29T15:59:59.329Z,99.90
2017-12-29T16:02:27.861Z,99.90
2017-12-29T16:04:55.426Z,99.90
2017-12-29T16:07:22.925Z,99.90
2017-12-29T16:09:50.408Z,99.90
2017-12-29T16:12:18.677Z,99.90
2017-12-29T16:14:46.934Z,99.90
2017-12-29T16:17:14.439Z,99.90
2017-12-29T16:19:41.942Z,99.90
2017-12-29T16:22:09.454Z,99.90
2017-12-29T16:24:37.130Z,99.90
2017-12-29T16:27:04.621Z,99.90
2017-12-29T16:29:32.174Z,99.90
2017-12-29T16:31:59.810Z,99.90
2017-12-29T16:34:27.363Z,99.90
2017-12-29T16:36:55.794Z,99.90
2017-12-29T16:39:23.423Z,99.90
2017-12-29T16:41:50.950Z,99.90
2017-12-29T16:44:19.217Z,99.90
2017-12-29T16:46:47.505Z,99.90
2017-12-29T16:49:15.809Z,99.90
2017-12-29T16:51:43.334Z,99.90
2017-12-29T16:54:11.601Z,99.90
2017-12-29T16:56:39.860Z,99.90
2017-12-29T16:59:08.865Z,99.90
2017-12-29T17:01:36.377Z,99.90
2017-12-29T17:04:04.113Z,99.80
2017-12-29T17:06:32.423Z,99.90
2017-12-29T17:08:59.936Z,99.90
2017-12-29T17:11:28.208Z,99.90
2017-12-29T17:13:56.497Z,99.90
2017-12-29T17:16:24.798Z,99.90
2017-12-29T17:18:52.293Z,99.90
2017-12-29T17:21:19.854Z,99.80
2017-12-29T17:23:47.359Z,99.60
2017-12-29T17:26:15.641Z,99.80
2017-12-29T17:28:43.149Z,99.70
2017-12-29T17:31:10.652Z,99.80
2017-12-29T17:33:38.181Z,99.50
2017-12-29T17:36:05.689Z,99.30
2017-12-29T17:38:33.178Z,99.50
2017-12-29T17:41:00.678Z,99.50
2017-12-29T17:43:29.022Z,99.50
2017-12-29T17:45:56.521Z,99.50
2017-12-29T17:48:24.793Z,99.70
2017-12-29T17:50:53.085Z,99.30
2017-12-29T17:53:20.634Z,99.20
2017-12-29T17:55:48.893Z,99.40
2017-12-29T19:40:18.747Z,98.80
2017-12-29T19:42:46.253Z,98.70
2017-12-29T19:45:13.741Z,98.70
2017-12-29T19:47:42.017Z,99.50
2017-12-29T19:50:10.304Z,99.70
2017-12-29T19:52:37.841Z,99.70
2017-12-29T19:55:05.886Z,99.90
2017-12-29T19:57:34.166Z,99.90
2017-12-29T20:00:01.685Z,99.90
2017-12-29T20:02:29.245Z,99.90
2017-12-29T20:04:56.751Z,99.90
2017-12-29T20:07:24.269Z,99.90
2017-12-29T23:48:08.829Z,98.30
2017-12-29T23:50:36.345Z,98.20
2017-12-29T23:53:04.603Z,98.10
2017-12-29T23:55:32.097Z,98.10
2017-12-29T23:57:59.618Z,97.80
